Time;durP1;ratioP1;P1;durP2;ratioP2;P2;SDS_P1;SDS_P2;PMS_P1;PMS_P2;Temp;Humidity;BMP_temperature;BMP_pressure;BME280_temperature;BME280_humidity;BME280_pressure;Samples;Min_cycle;Max_cycle;Signal;HPM_P1;HPM_P2
2022/01/09 00:00:35;;;;;;;4.43;3.13;;;2.60;88.30;;;;;;4898192;29;20039;-78
2022/01/09 00:03:24;;;;;;;3.78;3.10;;;2.50;88.20;;;;;;4912701;29;20038;-78
2022/01/09 00:05:50;;;;;;;3.78;3.00;;;2.50;88.60;;;;;;4912315;29;20051;-78
2022/01/09 00:08:16;;;;;;;5.13;3.33;;;2.50;89.30;;;;;;4931293;29;20433;-79
2022/01/09 00:11:26;;;;;;;8.27;4.90;;;2.40;89.10;;;;;;4927480;29;20578;-78
2022/01/09 00:14:17;;;;;;;;;;;;;;;;;;;;;
2022/01/09 00:20:11;;;;;;;6.73;4.40;;;2.30;89.60;;;;;;4899818;29;20123;-79
2022/01/09 00:22:46;;;;;;;8.95;4.53;;;2.30;89.80;;;;;;4937153;29;20267;-79
2022/01/09 00:25:23;;;;;;;15.05;7.78;;;2.30;90.00;;;;;;4929703;29;20170;-78
2022/01/09 00:35:02;;;;;;;6.18;3.60;;;2.30;90.10;;;;;;4920987;29;20035;-79
2022/01/09 00:37:51;;;;;;;5.88;3.60;;;2.20;90.20;;;;;;4914054;29;20395;-79
2022/01/09 00:41:16;;;;;;;;;;;;;;;;;;;;;
2022/01/09 00:43:43;;;;;;;5.05;3.10;;;2.20;90.20;;;;;;4909408;29;20040;-78
2022/01/09 00:46:10;;;;;;;6.57;3.45;;;2.20;90.70;;;;;;4928356;29;20034;-78
2022/01/09 00:49:07;;;;;;;5.07;3.40;;;2.20;90.70;;;;;;4913774;28;20043;-78
2022/01/09 00:59:01;;;;;;;4.68;2.92;;;2.20;90.60;;;;;;4930830;29;20068;-78
2022/01/09 01:01:32;;;;;;;3.05;2.42;;;2.20;90.60;;;;;;4912902;29;20040;-78
2022/01/09 01:04:01;;;;;;;5.43;2.97;;;2.30;90.50;;;;;;4912487;29;20550;-78
2022/01/09 01:07:29;;;;;;;;;;;;;;;;;;;;;
2022/01/09 01:16:43;;;;;;;5.38;2.85;;;2.40;89.90;;;;;;4948509;28;20494;-78
2022/01/09 01:19:13;;;;;;;3.92;2.67;;;2.50;90.10;;;;;;4951099;29;20024;-78
2022/01/09 01:22:11;;;;;;;3.92;2.90;;;2.50;89.80;;;;;;4935957;29;20027;-78
2022/01/09 01:25:05;;;;;;;5.22;2.80;;;2.60;89.50;;;;;;4920876;29;20043;-78
2022/01/09 01:27:40;;;;;;;7.55;2.47;;;2.60;89.00;;;;;;4927388;29;20486;-78
2022/01/09 01:30:34;;;;;;;3.20;2.42;;;2.70;89.70;;;;;;4987077;28;20049;-78
2022/01/09 01:36:31;;;;;;;3.13;2.30;;;2.80;89.20;;;;;;4996636;28;20464;-78
2022/01/09 01:43:46;;;;;;;2.88;2.20;;;2.70;88.00;;;;;;4929257;29;20372;-78
2022/01/09 01:56:51;;;;;;;4.72;2.72;;;3.00;88.60;;;;;;4896449;29;20051;-78
2022/01/09 02:13:02;;;;;;;;;;;;;;;;;;;;;
2022/01/09 02:41:41;;;;;;;;;;;;;;;;;;;;;
2022/01/09 03:12:37;;;;;;;;;;;;;;;;;;;;;
2022/01/09 03:18:46;;;;;;;;;;;;;;;;;;;;;
2022/01/09 03:22:02;;;;;;;4.30;2.60;;;3.00;90.00;;;;;;4950855;28;20066;-78
2022/01/09 03:25:07;;;;;;;2.92;2.17;;;3.00;90.10;;;;;;4912835;29;20475;-79
2022/01/09 03:38:15;;;;;;;2.35;2.10;;;2.70;90.00;;;;;;4801304;29;20495;-79
2022/01/09 03:58:39;;;;;;;;;;;;;;;;;;;;;
2022/01/09 04:40:19;;;;;;;4.50;3.15;;;2.40;93.90;;;;;;4801418;29;20078;-79
2022/01/09 04:42:49;;;;;;;3.80;2.92;;;2.30;93.80;;;;;;4801470;29;20039;-79
2022/01/09 04:58:42;;;;;;;2.92;2.10;;;2.30;92.80;;;;;;4814963;29;20178;-78
2022/01/09 05:01:11;;;;;;;3.13;2.38;;;2.30;92.50;;;;;;4852291;29;20045;-78
2022/01/09 05:31:50;;;;;;;2.05;1.88;;;2.60;91.90;;;;;;4837784;29;20141;-78
2022/01/09 05:34:25;;;;;;;2.63;2.03;;;2.70;92.10;;;;;;4840394;29;20089;-78
2022/01/09 05:48:01;;;;;;;3.97;1.92;;;2.80;92.00;;;;;;4896525;29;20526;-79
2022/01/09 06:04:40;;;;;;;;;;;;;;;;;;;;;
2022/01/09 06:07:40;;;;;;;2.78;1.95;;;2.80;91.80;;;;;;4802814;29;20038;-78
2022/01/09 06:10:09;;;;;;;3.75;2.17;;;2.80;91.90;;;;;;4837287;29;20046;-79
2022/01/09 06:12:57;;;;;;;4.65;2.15;;;2.80;91.90;;;;;;4851643;29;20037;-79
2022/01/09 06:15:41;;;;;;;2.83;1.90;;;2.90;91.60;;;;;;4925423;29;20044;-79
2022/01/09 06:18:20;;;;;;;2.00;1.80;;;2.90;91.40;;;;;;4933885;29;20032;-78
2022/01/09 06:21:06;;;;;;;2.28;2.08;;;3.00;91.40;;;;;;4912209;29;20048;-78
2022/01/09 06:24:16;;;;;;;3.38;2.20;;;3.00;91.80;;;;;;4897489;28;20044;-79
2022/01/09 06:27:32;;;;;;;;;;;;;;;;;;;;;
2022/01/09 06:33:42;;;;;;;3.35;1.58;;;3.10;91.60;;;;;;4893267;28;20414;-78
2022/01/09 06:36:08;;;;;;;2.50;1.80;;;3.10;91.30;;;;;;4894242;28;20148;-80
2022/01/09 06:38:37;;;;;;;2.92;1.95;;;3.20;91.50;;;;;;4946442;28;20083;-79
2022/01/09 06:41:19;;;;;;;2.85;1.90;;;3.20;91.80;;;;;;4897749;28;20033;-79
2022/01/09 06:50:05;;;;;;;2.72;2.10;;;3.20;91.10;;;;;;4891784;29;20351;-79
2022/01/09 06:52:38;;;;;;;2.85;1.83;;;3.30;91.00;;;;;;4881509;29;20036;-79
2022/01/09 06:55:17;;;;;;;2.47;1.75;;;3.30;90.90;;;;;;4895852;29;20032;-79
2022/01/09 06:57:43;;;;;;;2.72;2.00;;;3.30;90.80;;;;;;4895451;28;20067;-79
2022/01/09 07:00:14;;;;;;;2.40;1.98;;;3.30;91.10;;;;;;4896066;29;20039;-79
2022/01/09 07:06:38;;;;;;;2.53;1.75;;;3.30;90.90;;;;;;4894391;29;20040;-79
2022/01/09 07:09:31;;;;;;;5.13;1.92;;;3.30;90.60;;;;;;4897118;29;20107;-79
2022/01/09 07:12:40;;;;;;;2.42;2.00;;;3.30;91.30;;;;;;4930408;29;20024;-79
2022/01/09 07:15:12;;;;;;;2.58;2.15;;;3.40;91.00;;;;;;4913785;29;20079;-79
2022/01/09 07:17:46;;;;;;;4.93;4.03;;;3.40;91.30;;;;;;4899743;29;20110;-79
2022/01/09 07:20:15;;;;;;;6.90;2.83;;;3.40;91.20;;;;;;4895801;28;20076;-79
2022/01/09 07:22:41;;;;;;;3.00;2.20;;;3.50;91.10;;;;;;4894695;29;20060;-79
2022/01/09 07:25:13;;;;;;;2.65;2.42;;;3.60;90.90;;;;;;4896522;28;20071;-79
2022/01/09 07:27:42;;;;;;;4.18;2.50;;;3.60;90.90;;;;;;4887356;28;20112;-79
2022/01/09 07:30:12;;;;;;;2.95;2.30;;;3.70;90.20;;;;;;4896276;28;20036;-79
2022/01/09 07:32:43;;;;;;;4.18;2.17;;;3.80;90.70;;;;;;4894465;28;20025;-79
2022/01/09 07:35:14;;;;;;;2.65;2.05;;;3.90;90.10;;;;;;4878840;29;20047;-78
2022/01/09 07:37:45;;;;;;;2.15;1.92;;;4.00;89.10;;;;;;4877950;28;20025;-79
2022/01/09 07:40:24;;;;;;;2.38;1.60;;;4.10;89.20;;;;;;4895165;29;20098;-79
2022/01/09 07:42:53;;;;;;;2.42;1.75;;;4.20;88.70;;;;;;4894937;28;20071;-79
2022/01/09 07:45:25;;;;;;;2.65;1.75;;;4.30;87.80;;;;;;4878368;29;20040;-79
2022/01/09 07:47:56;;;;;;;2.92;1.85;;;4.40;87.40;;;;;;4876526;29;20071;-79
2022/01/09 07:50:22;;;;;;;4.15;1.92;;;4.40;86.80;;;;;;4895226;29;20048;-78
2022/01/09 07:52:49;;;;;;;2.30;1.90;;;4.50;87.00;;;;;;4894067;29;20159;-79
2022/01/09 07:55:18;;;;;;;2.22;1.70;;;4.50;87.20;;;;;;4895114;28;20108;-79
2022/01/09 07:57:45;;;;;;;2.17;1.90;;;4.60;87.10;;;;;;4894227;29;20025;-79
2022/01/09 08:00:18;;;;;;;2.28;1.63;;;4.60;86.90;;;;;;4896230;29;20036;-79
2022/01/09 08:02:53;;;;;;;3.25;1.75;;;4.70;86.30;;;;;;4877732;28;20071;-79
2022/01/09 08:05:19;;;;;;;2.65;1.90;;;4.70;86.20;;;;;;4898276;29;20114;-79
2022/01/09 08:07:45;;;;;;;2.33;1.80;;;4.80;85.40;;;;;;4895042;29;20078;-80
2022/01/09 08:10:15;;;;;;;5.80;2.13;;;4.90;85.60;;;;;;4885691;28;20118;-79
2022/01/09 08:12:41;;;;;;;2.97;1.83;;;4.90;85.70;;;;;;4877542;29;20379;-78
2022/01/09 08:15:16;;;;;;;2.25;2.00;;;4.90;85.20;;;;;;4878105;29;20036;-79
2022/01/09 08:17:55;;;;;;;3.08;2.00;;;4.90;85.50;;;;;;4877132;29;20035;-79
2022/01/09 08:20:27;;;;;;;3.47;2.50;;;4.90;84.90;;;;;;4878476;28;20037;-79
2022/01/09 08:22:53;;;;;;;3.17;2.30;;;5.00;85.70;;;;;;4893848;29;20029;-78
2022/01/09 08:25:31;;;;;;;3.00;2.17;;;5.00;84.90;;;;;;4894719;29;20041;-79
2022/01/09 08:28:02;;;;;;;2.53;2.15;;;5.10;85.50;;;;;;4891905;29;20032;-79
2022/01/09 08:30:28;;;;;;;6.93;2.58;;;5.10;86.20;;;;;;4883709;28;20033;-79
2022/01/09 08:32:54;;;;;;;4.57;2.75;;;5.10;86.60;;;;;;4894090;28;20049;-79
2022/01/09 08:35:22;;;;;;;5.13;2.95;;;5.20;87.30;;;;;;4894562;29;20050;-79
2022/01/09 08:37:48;;;;;;;3.72;2.53;;;5.20;87.00;;;;;;4893627;29;20024;-79
2022/01/09 08:40:21;;;;;;;5.22;2.47;;;5.30;86.40;;;;;;4877938;29;20369;-79
2022/01/09 08:42:49;;;;;;;5.85;2.83;;;5.30;85.00;;;;;;4876573;29;20423;-78
2022/01/09 08:45:19;;;;;;;2.67;2.33;;;5.40;84.10;;;;;;4895057;29;20036;-80
2022/01/09 08:47:46;;;;;;;2.97;2.50;;;5.50;85.90;;;;;;4876527;29;20658;-81
2022/01/09 08:50:17;;;;;;;2.30;2.10;;;5.60;87.00;;;;;;4877717;28;20037;-77
2022/01/09 08:52:46;;;;;;;3.72;2.60;;;5.70;89.60;;;;;;4893599;29;20387;-77
2022/01/09 08:55:16;;;;;;;5.30;2.78;;;5.80;87.10;;;;;;4894416;29;20033;-78
2022/01/09 08:57:51;;;;;;;4.85;2.83;;;5.80;84.60;;;;;;4876783;28;20507;-78
2022/01/09 09:00:18;;;;;;;5.45;3.00;;;5.90;85.40;;;;;;4897262;29;20016;-84
2022/01/09 09:02:48;;;;;;;3.72;2.80;;;6.00;84.70;;;;;;4894201;28;20037;-79
2022/01/09 09:05:17;;;;;;;4.20;3.00;;;6.00;86.50;;;;;;4884858;28;20566;-80
2022/01/09 09:07:46;;;;;;;5.63;3.50;;;6.10;84.10;;;;;;4893190;29;20039;-81
2022/01/09 09:10:33;;;;;;;6.65;2.85;;;6.10;83.00;;;;;;4877665;29;20041;-82
2022/01/09 09:13:04;;;;;;;3.50;2.58;;;6.20;82.80;;;;;;4893258;28;20016;-81
2022/01/09 09:15:34;;;;;;;4.90;2.83;;;6.20;84.90;;;;;;4894157;29;20029;-82
2022/01/09 09:18:05;;;;;;;4.70;3.03;;;6.30;85.20;;;;;;4893176;29;20484;-81
2022/01/09 09:20:40;;;;;;;5.28;3.22;;;6.30;83.30;;;;;;4894405;29;20040;-80
2022/01/09 09:23:06;;;;;;;6.18;3.50;;;6.40;86.00;;;;;;4893393;28;20042;-80
2022/01/09 09:25:35;;;;;;;5.05;3.47;;;6.40;86.10;;;;;;4894461;28;20036;-79
2022/01/09 09:28:00;;;;;;;3.35;2.55;;;6.50;88.70;;;;;;4893014;29;20072;-80
2022/01/09 09:30:26;;;;;;;4.68;3.72;;;6.50;86.90;;;;;;4898198;29;20070;-80
2022/01/09 09:32:52;;;;;;;5.55;3.03;;;6.50;85.90;;;;;;4911058;28;20271;-80
2022/01/09 09:35:18;;;;;;;3.58;2.95;;;6.60;84.70;;;;;;4900568;29;20036;-80
2022/01/09 09:37:44;;;;;;;3.75;2.45;;;6.60;89.10;;;;;;4894154;28;20020;-80
2022/01/09 09:40:13;;;;;;;3.50;2.60;;;6.80;84.00;;;;;;4905294;28;20556;-79
2022/01/09 09:42:40;;;;;;;3.30;2.38;;;6.80;83.40;;;;;;4914392;28;20381;-80
2022/01/09 09:45:14;;;;;;;4.78;2.30;;;6.90;82.40;;;;;;4905537;28;20029;-80
2022/01/09 09:47:42;;;;;;;3.67;2.65;;;6.90;79.80;;;;;;4908000;28;20087;-79
2022/01/09 09:50:16;;;;;;;5.38;3.15;;;7.00;80.80;;;;;;4897069;28;20136;-80
2022/01/09 09:52:52;;;;;;;5.43;3.15;;;7.00;81.30;;;;;;4879047;29;20400;-79
2022/01/09 09:55:33;;;;;;;4.68;3.15;;;7.00;81.00;;;;;;4887540;28;20044;-80
2022/01/09 09:57:59;;;;;;;3.55;2.80;;;7.00;79.40;;;;;;4912002;29;20024;-80
2022/01/09 10:00:35;;;;;;;4.57;2.92;;;7.10;80.40;;;;;;4906569;28;20033;-80
2022/01/09 10:03:04;;;;;;;6.25;2.63;;;7.00;79.60;;;;;;4913958;29;20474;-79
2022/01/09 10:05:39;;;;;;;4.45;2.53;;;7.00;80.20;;;;;;4901689;28;20024;-80
2022/01/09 10:08:15;;;;;;;13.80;2.60;;;7.00;79.40;;;;;;4895819;29;20056;-80
2022/01/09 10:10:42;;;;;;;6.68;3.05;;;7.00;79.70;;;;;;4896668;29;20041;-80
2022/01/09 10:13:19;;;;;;;2.97;2.38;;;7.00;80.00;;;;;;4878735;29;20029;-80
2022/01/09 10:15:49;;;;;;;4.50;2.72;;;7.00;79.90;;;;;;4901459;29;20079;-80
2022/01/09 10:18:45;;;;;;;4.03;2.83;;;7.10;78.90;;;;;;4895671;28;20511;-80
2022/01/09 10:21:15;;;;;;;5.07;3.67;;;7.20;80.40;;;;;;4896743;29;20021;-80
2022/01/09 10:24:04;;;;;;;3.58;2.70;;;7.30;79.70;;;;;;4878576;29;20566;-80
2022/01/09 10:26:33;;;;;;;2.65;2.00;;;7.20;82.10;;;;;;4896349;28;20498;-81
2022/01/09 10:29:00;;;;;;;3.17;2.53;;;7.10;81.10;;;;;;4896045;28;20131;-80
2022/01/09 10:31:26;;;;;;;3.20;2.35;;;7.00;81.70;;;;;;4891676;29;20024;-80
2022/01/09 10:34:06;;;;;;;5.60;4.28;;;7.00;85.20;;;;;;4912867;28;20387;-80
2022/01/09 10:36:36;;;;;;;4.90;4.22;;;7.10;85.70;;;;;;4895875;28;20131;-80
2022/01/09 10:39:13;;;;;;;3.92;2.45;;;7.20;86.80;;;;;;4895760;29;20423;-80
2022/01/09 10:41:45;;;;;;;6.15;2.20;;;7.30;82.60;;;;;;4896358;28;20490;-80
2022/01/09 10:44:22;;;;;;;8.13;2.43;;;7.40;84.20;;;;;;4895635;29;20072;-80
2022/01/09 10:47:12;;;;;;;3.22;2.20;;;7.40;82.40;;;;;;4909518;29;20066;-79
2022/01/09 10:49:53;;;;;;;3.28;2.17;;;7.40;82.30;;;;;;4893806;28;20045;-80
2022/01/09 10:52:36;;;;;;;3.22;2.15;;;7.50;82.00;;;;;;4895476;29;20028;-80
2022/01/09 10:55:11;;;;;;;5.22;2.28;;;7.60;83.20;;;;;;4896243;29;20039;-81
2022/01/09 10:57:40;;;;;;;2.80;2.47;;;7.70;83.20;;;;;;4895017;28;20025;-80
2022/01/09 11:00:16;;;;;;;7.20;4.78;;;7.80;81.90;;;;;;4897251;29;20040;-80
2022/01/09 11:02:44;;;;;;;10.43;5.75;;;7.80;84.00;;;;;;4913135;28;20562;-80
2022/01/09 11:05:13;;;;;;;6.95;4.85;;;7.80;86.10;;;;;;4886890;28;20406;-81
2022/01/09 11:07:40;;;;;;;5.72;3.30;;;7.80;84.90;;;;;;4891464;29;20032;-80
2022/01/09 11:10:08;;;;;;;6.13;3.15;;;7.90;81.80;;;;;;4886998;28;20056;-80
2022/01/09 11:12:46;;;;;;;3.67;2.90;;;8.00;80.10;;;;;;4894837;29;20031;-80
2022/01/09 11:15:16;;;;;;;6.63;3.08;;;8.00;80.90;;;;;;4895999;29;20048;-79
2022/01/09 11:17:49;;;;;;;5.03;3.53;;;8.00;82.60;;;;;;4877862;29;20510;-80
2022/01/09 11:20:14;;;;;;;;;;;8.20;79.70;;;;;;4896283;28;20384;-81
2022/01/09 11:22:42;;;;;;;7.80;3.88;;;8.20;78.90;;;;;;4895072;28;19912;-81
2022/01/09 11:25:40;;;;;;;7.70;5.18;;;8.30;80.70;;;;;;4895627;29;20020;-80
2022/01/09 11:28:15;;;;;;;10.40;5.38;;;8.40;79.40;;;;;;4876219;29;20053;-80
2022/01/09 11:30:48;;;;;;;9.93;5.00;;;8.50;76.90;;;;;;4907061;28;20488;-80
2022/01/09 11:33:30;;;;;;;7.43;4.60;;;8.60;77.00;;;;;;4912715;28;20040;-81
2022/01/09 11:36:23;;;;;;;7.90;4.30;;;8.70;78.00;;;;;;4880456;29;20111;-80
2022/01/09 11:38:50;;;;;;;5.10;3.40;;;8.90;75.80;;;;;;4894138;29;20025;-80
2022/01/09 11:41:25;;;;;;;7.65;4.63;;;9.00;75.90;;;;;;4906673;29;20053;-80
2022/01/09 11:44:08;;;;;;;8.77;3.20;;;9.10;75.70;;;;;;4894305;28;20104;-81
2022/01/09 11:47:05;;;;;;;7.57;3.83;;;9.20;74.40;;;;;;4894971;28;20029;-81
2022/01/09 11:49:49;;;;;;;7.30;4.18;;;9.30;74.00;;;;;;4894739;29;20451;-81
2022/01/09 11:52:15;;;;;;;6.22;4.03;;;9.40;73.20;;;;;;4912590;28;20024;-80
2022/01/09 11:54:54;;;;;;;7.00;4.13;;;9.50;73.00;;;;;;4906227;28;20033;-81
2022/01/09 11:57:52;;;;;;;8.63;4.85;;;9.50;72.10;;;;;;4884838;29;20122;-80
2022/01/09 12:00:30;;;;;;;16.65;10.88;;;9.60;71.80;;;;;;4903434;29;20046;-81
2022/01/09 12:03:00;;;;;;;81.15;31.33;;;9.70;71.60;;;;;;4895663;29;20653;-81
2022/01/09 12:05:46;;;;;;;74.53;30.67;;;9.80;71.70;;;;;;4894963;29;20033;-80
2022/01/09 12:08:12;;;;;;;23.50;10.25;;;9.80;70.60;;;;;;4893510;29;20080;-79
2022/01/09 12:10:39;;;;;;;14.05;7.47;;;9.80;70.70;;;;;;4895349;29;20175;-79
2022/01/09 12:13:07;;;;;;;16.20;8.07;;;9.80;70.70;;;;;;4894014;29;20036;-80
2022/01/09 12:15:49;;;;;;;12.55;6.22;;;9.80;71.10;;;;;;4894981;29;20033;-79
2022/01/09 12:18:47;;;;;;;16.25;8.25;;;9.80;71.30;;;;;;4911776;29;20379;-78
2022/01/09 12:21:40;;;;;;;9.10;5.85;;;9.70;71.20;;;;;;4905036;29;20041;-81
2022/01/09 12:24:24;;;;;;;;;;;9.70;71.00;;;;;;4910485;28;20135;-85
2022/01/09 12:26:53;;;;;;;13.75;9.07;;;9.60;73.80;;;;;;4891381;29;19907;-81
2022/01/09 12:29:46;;;;;;;25.70;16.48;;;9.50;75.50;;;;;;4893168;28;20036;-80
2022/01/09 12:32:48;;;;;;;8.95;5.75;;;9.30;77.50;;;;;;4894037;29;20036;-81
2022/01/09 12:35:27;;;;;;;8.73;4.00;;;9.20;82.30;;;;;;4911910;29;20047;-79
2022/01/09 12:37:58;;;;;;;3.33;2.35;;;9.00;87.80;;;;;;4878920;29;20040;-79
2022/01/09 12:40:29;;;;;;;31.73;15.77;;;8.90;90.20;;;;;;4877922;28;20384;-80
2022/01/09 12:43:00;;;;;;;14.25;8.13;;;8.70;92.00;;;;;;4893484;29;20497;-79
2022/01/09 12:45:58;;;;;;;18.50;10.32;;;8.60;92.70;;;;;;4882728;28;20439;-83
2022/01/09 12:48:31;;;;;;;12.93;5.45;;;8.40;93.30;;;;;;4893278;28;20212;-84
2022/01/09 12:51:20;;;;;;;10.25;5.55;;;8.30;94.40;;;;;;4890686;29;20052;-82
2022/01/09 12:53:55;;;;;;;15.55;7.80;;;8.20;95.20;;;;;;4911614;29;20039;-81
2022/01/09 12:56:26;;;;;;;22.60;10.30;;;8.10;95.60;;;;;;4891940;28;20028;-83
2022/01/09 12:59:13;;;;;;;12.02;7.20;;;8.10;96.40;;;;;;4876206;29;20566;-84
2022/01/09 13:04:42;;;;;;;5.38;3.60;;;7.90;97.00;;;;;;4909808;29;20098;-86
2022/01/09 13:07:13;;;;;;;14.23;6.90;;;7.80;96.80;;;;;;4877202;29;20032;-81
2022/01/09 13:09:39;;;;;;;7.22;4.82;;;7.80;96.90;;;;;;4894235;28;20084;-81
2022/01/09 13:12:08;;;;;;;2.35;1.98;;;7.70;97.10;;;;;;4894240;28;20063;-86
2022/01/09 13:14:58;;;;;;;3.15;2.15;;;7.70;97.50;;;;;;4912648;29;20111;-80
2022/01/09 13:18:00;;;;;;;;;;;;;;;;;;;;;
2022/01/09 13:20:32;;;;;;;22.75;12.80;;;7.60;99.40;;;;;;4903330;28;20029;-81
2022/01/09 13:23:17;;;;;;;6.63;4.00;;;7.40;99.90;;;;;;4912391;29;20032;-83
2022/01/09 13:25:54;;;;;;;8.20;4.35;;;7.30;99.90;;;;;;4901041;28;20033;-80
2022/01/09 13:28:22;;;;;;;8.32;5.15;;;7.20;99.90;;;;;;4896244;29;20045;-80
2022/01/09 13:30:55;;;;;;;14.70;7.18;;;7.00;99.90;;;;;;4909856;28;20070;-80
2022/01/09 13:33:24;;;;;;;15.48;7.72;;;7.00;99.90;;;;;;4915088;28;20499;-81
2022/01/09 13:35:50;;;;;;;4.00;2.50;;;7.00;99.90;;;;;;4899476;28;20047;-81
2022/01/09 13:38:18;;;;;;;4.38;2.70;;;7.00;99.90;;;;;;4914504;29;20032;-81
2022/01/09 13:40:45;;;;;;;2.35;2.15;;;7.00;99.90;;;;;;4900596;28;20071;-81
2022/01/09 13:43:11;;;;;;;3.75;2.28;;;7.00;99.90;;;;;;4896276;29;20029;-81
2022/01/09 13:45:39;;;;;;;9.60;6.25;;;6.80;99.90;;;;;;4897345;28;20479;-80
2022/01/09 13:48:08;;;;;;;5.53;3.42;;;6.80;99.90;;;;;;4895907;29;20036;-81
2022/01/09 13:50:37;;;;;;;6.47;3.55;;;6.70;99.90;;;;;;4907868;29;20040;-81
2022/01/09 13:53:08;;;;;;;9.23;5.28;;;6.70;99.90;;;;;;4914256;28;20029;-81
2022/01/09 13:55:37;;;;;;;7.85;3.50;;;6.50;99.90;;;;;;4912326;28;20028;-80
2022/01/09 13:58:07;;;;;;;3.72;2.70;;;6.40;99.90;;;;;;4914208;28;20036;-80
2022/01/09 14:00:38;;;;;;;10.93;4.97;;;6.30;99.90;;;;;;4911643;29;20330;-80
2022/01/09 14:03:08;;;;;;;3.97;2.85;;;6.20;99.90;;;;;;4913908;29;20024;-81
2022/01/09 14:05:47;;;;;;;6.72;3.35;;;6.10;99.90;;;;;;4884391;29;20033;-80
2022/01/09 14:08:17;;;;;;;4.80;2.78;;;6.10;99.90;;;;;;4907673;29;20482;-84
2022/01/09 14:10:47;;;;;;;6.63;4.00;;;6.00;99.90;;;;;;4906646;29;20032;-85
2022/01/09 14:13:15;;;;;;;8.10;4.35;;;6.00;99.90;;;;;;4896676;29;20396;-86
2022/01/09 14:15:43;;;;;;;6.75;4.13;;;6.00;99.90;;;;;;4911908;29;20162;-83
2022/01/09 14:18:25;;;;;;;5.90;3.75;;;6.00;99.90;;;;;;4897261;28;20040;-85
2022/01/09 14:20:59;;;;;;;6.40;4.10;;;6.00;99.90;;;;;;4906805;29;20395;-81
2022/01/09 14:23:31;;;;;;;10.95;4.40;;;6.00;99.90;;;;;;4896446;28;20231;-80
2022/01/09 14:26:07;;;;;;;7.15;3.67;;;6.10;99.90;;;;;;4902428;28;20076;-80
2022/01/09 14:28:36;;;;;;;4.85;3.05;;;6.00;99.90;;;;;;4878349;29;20079;-85
2022/01/09 14:31:08;;;;;;;9.13;4.15;;;6.00;99.90;;;;;;4897943;28;20039;-80
2022/01/09 14:33:46;;;;;;;4.65;3.28;;;6.00;99.90;;;;;;4913938;28;20441;-85
2022/01/09 14:36:17;;;;;;;4.15;3.13;;;6.00;99.90;;;;;;4896890;28;20048;-81
2022/01/09 14:38:49;;;;;;;6.32;3.47;;;6.10;99.90;;;;;;4878310;29;20025;-81
2022/01/09 14:41:22;;;;;;;9.07;3.85;;;6.10;99.90;;;;;;4884430;29;20028;-80
2022/01/09 14:43:48;;;;;;;9.25;4.78;;;6.10;99.90;;;;;;4877916;29;20134;-80
2022/01/09 14:46:23;;;;;;;6.68;3.97;;;6.10;99.90;;;;;;4892381;29;20526;-80
2022/01/09 14:48:49;;;;;;;6.07;4.38;;;6.10;99.90;;;;;;4894962;29;20071;-79
2022/01/09 14:51:16;;;;;;;5.38;3.63;;;6.10;99.90;;;;;;4911596;29;20447;-81
2022/01/09 14:53:43;;;;;;;8.82;3.83;;;6.10;99.90;;;;;;4913423;28;20387;-83
2022/01/09 14:56:10;;;;;;;5.65;3.75;;;6.00;99.90;;;;;;4896381;29;20025;-82
2022/01/09 14:58:39;;;;;;;5.25;3.85;;;5.90;99.90;;;;;;4894678;29;20029;-80
2022/01/09 15:01:06;;;;;;;6.38;4.18;;;5.90;99.90;;;;;;4894195;28;20036;-82
2022/01/09 15:03:33;;;;;;;10.25;5.05;;;5.90;99.90;;;;;;4913524;29;20078;-80
2022/01/09 15:05:59;;;;;;;11.60;6.35;;;5.90;99.90;;;;;;4880408;29;20033;-81
2022/01/09 15:08:27;;;;;;;11.88;6.45;;;5.90;99.90;;;;;;4894291;29;20083;-82
2022/01/09 15:10:53;;;;;;;9.88;5.97;;;5.90;99.90;;;;;;4879576;29;20399;-80
2022/01/09 15:13:20;;;;;;;11.25;6.43;;;5.90;99.90;;;;;;4894581;29;20059;-82
2022/01/09 15:15:49;;;;;;;13.50;7.40;;;5.90;99.90;;;;;;4907982;29;20035;-80
2022/01/09 15:18:15;;;;;;;11.00;7.40;;;5.80;99.90;;;;;;4913057;28;20075;-80
2022/01/09 15:20:41;;;;;;;7.55;4.03;;;5.90;99.90;;;;;;4899135;29;20503;-79
2022/01/09 15:23:13;;;;;;;107.80;22.40;;;5.90;99.90;;;;;;4907062;28;20483;-80
2022/01/09 15:25:41;;;;;;;;;;;5.90;99.90;;;;;;4894400;29;20043;-79
2022/01/09 15:28:09;;;;;;;11.63;5.78;;;5.80;99.90;;;;;;4912519;29;19915;-79
2022/01/09 15:30:40;;;;;;;12.93;5.90;;;5.80;99.90;;;;;;4883182;28;20037;-80
2022/01/09 15:33:06;;;;;;;16.33;8.45;;;5.80;99.90;;;;;;4894132;28;20417;-79
2022/01/09 15:35:36;;;;;;;9.05;4.03;;;5.70;99.90;;;;;;4895236;29;20044;-78
2022/01/09 15:38:02;;;;;;;15.05;5.80;;;5.70;99.90;;;;;;4877772;29;20033;-79
2022/01/09 15:40:58;;;;;;;9.27;4.55;;;5.80;99.90;;;;;;4895629;28;20060;-84
2022/01/09 15:43:40;;;;;;;;;;;;;;;;;;;;;
2022/01/09 15:46:09;;;;;;;7.80;4.60;;;5.70;99.90;;;;;;4895613;29;20025;-80
2022/01/09 15:49:08;;;;;;;4.35;3.17;;;5.70;99.90;;;;;;4877070;29;20037;-84
2022/01/09 15:51:44;;;;;;;8.80;5.40;;;5.80;99.90;;;;;;4896731;28;20041;-80
2022/01/09 15:54:13;;;;;;;4.22;3.45;;;5.80;99.90;;;;;;4893300;28;20502;-83
2022/01/09 15:56:42;;;;;;;7.20;3.95;;;5.70;99.90;;;;;;4894882;28;20064;-80
2022/01/09 15:59:20;;;;;;;5.75;3.40;;;5.60;99.90;;;;;;4878183;29;20036;-79
2022/01/09 16:01:46;;;;;;;7.93;4.45;;;5.60;99.90;;;;;;4908440;29;20140;-77
2022/01/09 16:04:15;;;;;;;10.68;6.82;;;5.60;99.90;;;;;;4909719;28;20032;-79
2022/01/09 16:06:42;;;;;;;20.13;12.27;;;5.60;99.90;;;;;;4911702;28;20075;-79
2022/01/09 16:09:11;;;;;;;82.78;44.95;;;5.70;99.90;;;;;;4910142;29;20565;-79
2022/01/09 16:11:46;;;;;;;133.13;69.70;;;5.80;99.90;;;;;;4877642;29;20025;-80
2022/01/09 16:14:12;;;;;;;52.65;26.52;;;5.90;99.90;;;;;;4877512;29;20038;-79
2022/01/09 16:16:38;;;;;;;46.65;26.95;;;5.90;99.90;;;;;;4894468;29;20024;-79
2022/01/09 16:19:16;;;;;;;116.40;56.72;;;5.90;99.90;;;;;;4894904;28;20315;-78
2022/01/09 16:21:42;;;;;;;34.53;18.83;;;6.00;99.90;;;;;;4911540;28;20099;-78
2022/01/09 16:24:07;;;;;;;18.23;10.45;;;6.00;99.90;;;;;;4909838;29;20040;-79
2022/01/09 16:26:37;;;;;;;24.40;11.57;;;6.10;99.90;;;;;;4894639;28;20028;-79
2022/01/09 16:29:03;;;;;;;20.38;10.80;;;6.00;99.90;;;;;;4894463;29;20037;-79
2022/01/09 16:31:29;;;;;;;15.05;8.65;;;6.00;99.90;;;;;;4894312;29;20025;-79
2022/01/09 16:33:56;;;;;;;10.57;5.30;;;6.00;99.90;;;;;;4893710;28;20059;-79
2022/01/09 16:36:22;;;;;;;32.03;22.50;;;6.10;99.90;;;;;;4877902;29;20036;-78
2022/01/09 16:38:49;;;;;;;7.90;5.22;;;6.10;99.90;;;;;;4893251;28;20042;-79
2022/01/09 16:41:20;;;;;;;6.95;4.30;;;6.10;99.90;;;;;;4879457;28;20032;-78
2022/01/09 16:43:46;;;;;;;11.40;5.70;;;6.10;99.90;;;;;;4876706;29;20396;-78
2022/01/09 16:46:17;;;;;;;26.85;14.45;;;6.00;99.90;;;;;;4895199;28;20507;-78
2022/01/09 16:48:44;;;;;;;10.60;6.80;;;5.90;99.90;;;;;;4895755;28;20120;-79
2022/01/09 16:51:11;;;;;;;12.05;7.25;;;5.80;99.90;;;;;;4898118;29;20476;-80
2022/01/09 16:53:39;;;;;;;13.07;7.63;;;5.80;99.90;;;;;;4896383;29;20066;-80
2022/01/09 16:56:11;;;;;;;15.90;10.32;;;5.60;99.90;;;;;;4898697;28;20025;-80
2022/01/09 16:58:41;;;;;;;19.83;11.10;;;5.50;99.90;;;;;;4880074;29;20468;-78
2022/01/09 17:01:09;;;;;;;17.95;12.48;;;5.40;99.90;;;;;;4912297;29;20131;-78
2022/01/09 17:03:38;;;;;;;23.02;14.30;;;5.30;99.90;;;;;;4915204;29;20028;-79
2022/01/09 17:06:06;;;;;;;22.73;13.38;;;5.40;99.90;;;;;;4898775;28;20071;-79
2022/01/09 17:08:37;;;;;;;25.77;14.80;;;5.40;99.90;;;;;;4896447;29;20033;-78
2022/01/09 17:11:05;;;;;;;40.85;24.20;;;5.50;99.90;;;;;;4880991;28;20484;-78
2022/01/09 17:13:31;;;;;;;20.95;10.80;;;5.60;99.90;;;;;;4896370;29;20119;-79
2022/01/09 17:15:57;;;;;;;21.52;10.02;;;5.70;99.90;;;;;;4910478;29;20028;-79
2022/01/09 17:18:29;;;;;;;15.57;9.35;;;5.80;99.90;;;;;;4915180;29;20175;-79
2022/01/09 17:20:55;;;;;;;18.45;11.38;;;5.90;99.90;;;;;;4899718;28;20047;-79
2022/01/09 17:23:23;;;;;;;16.95;10.48;;;5.90;99.90;;;;;;4910943;28;20028;-79
2022/01/09 17:25:49;;;;;;;17.17;10.50;;;5.90;99.90;;;;;;4900322;28;20024;-78
2022/01/09 17:28:15;;;;;;;12.88;8.82;;;5.80;99.90;;;;;;4879547;29;20140;-79
2022/01/09 17:30:41;;;;;;;11.93;7.63;;;5.80;99.90;;;;;;4897498;29;20111;-79
2022/01/09 17:33:07;;;;;;;7.90;5.68;;;5.80;99.90;;;;;;4895969;28;20152;-79
2022/01/09 17:35:36;;;;;;;9.70;6.15;;;5.80;99.90;;;;;;4881038;29;20028;-78
2022/01/09 17:38:07;;;;;;;9.93;5.95;;;5.80;99.90;;;;;;4896223;29;20035;-79
2022/01/09 17:40:33;;;;;;;12.82;6.53;;;5.80;99.90;;;;;;4897374;28;20028;-78
2022/01/09 17:42:59;;;;;;;10.50;5.55;;;5.90;99.90;;;;;;4879423;29;20123;-78
2022/01/09 17:45:26;;;;;;;10.63;5.25;;;5.90;99.90;;;;;;4897099;29;20036;-79
2022/01/09 17:47:52;;;;;;;9.60;5.63;;;6.00;99.90;;;;;;4879125;29;20033;-78
2022/01/09 17:50:18;;;;;;;8.23;5.65;;;6.10;99.90;;;;;;4897022;29;20510;-79
2022/01/09 17:52:44;;;;;;;11.50;6.10;;;6.10;99.90;;;;;;4905313;29;20035;-79
2022/01/09 17:55:10;;;;;;;5.63;3.80;;;6.00;99.90;;;;;;4888080;28;20032;-78
2022/01/09 17:57:37;;;;;;;6.65;4.03;;;6.10;99.90;;;;;;4896022;28;20377;-79
2022/01/09 18:00:09;;;;;;;7.97;4.40;;;6.10;99.90;;;;;;4880733;29;20029;-79
2022/01/09 18:02:38;;;;;;;8.07;4.10;;;6.10;99.90;;;;;;4895983;28;20022;-78
2022/01/09 18:05:05;;;;;;;3.75;2.80;;;6.10;99.90;;;;;;4896961;28;20041;-79
2022/01/09 18:07:31;;;;;;;3.63;2.65;;;6.10;99.90;;;;;;4895713;29;20510;-79